This is the latest recevied weather packets stored in our database for station/object OM3WYM-13. If no packets are shown the sender has not sent any weather packets the latest 10 day(s).
| Time | Temp. | Humidity | Pressure | Rain* | Wind** | Luminosity | Snow |
|---|---|---|---|---|---|---|---|
| 1777799408 | 16.11° C | 37% | 1021.9 hPa | - | - | - | - |
| 1777798808 | 16.11° C | 38% | 1022 hPa | - | - | - | - |
| 1777798208 | 16.11° C | 38% | 1022 hPa | - | - | - | - |
| 1777797609 | 15.56° C | 38% | 1022.2 hPa | - | - | - | - |
| 1777797009 | 15.56° C | 38% | 1022.4 hPa | - | - | - | - |
| 1777796408 | 15° C | 38% | 1022.4 hPa | - | - | - | - |
| 1777795808 | 15° C | 38% | 1022.4 hPa | - | - | - | - |
| 1777795208 | 14.44° C | 39% | 1022.6 hPa | - | - | - | - |
| 1777794608 | 13.89° C | 40% | 1022.7 hPa | - | - | - | - |
| 1777794009 | 13.33° C | 40% | 1022.8 hPa | - | - | - | - |
| 1777793408 | 13.33° C | 42% | 1022.8 hPa | - | - | - | - |
| 1777792809 | 12.78° C | 44% | 1023 hPa | - | - | - | - |
| 1777792209 | 12.78° C | 46% | 1023 hPa | - | - | - | - |
| 1777791608 | 12.22° C | 48% | 1023.1 hPa | - | - | - | - |
| 1777791009 | 11.67° C | 50% | 1023.2 hPa | - | - | - | - |
| 1777790408 | 11.11° C | 53% | 1023.4 hPa | - | - | - | - |
| 1777789808 | 10.56° C | 55% | 1023.4 hPa | - | - | - | - |
| 1777789209 | 9.44° C | 58% | 1023.5 hPa | - | - | - | - |
| 1777788609 | 8.89° C | 60% | 1023.5 hPa | - | - | - | - |
| 1777788009 | 7.78° C | 65% | 1023.8 hPa | - | - | - | - |
| 1777787408 | 7.22° C | 69% | 1023.9 hPa | - | - | - | - |
| 1777786808 | 6.11° C | 73% | 1024 hPa | - | - | - | - |
| 1777786209 | 5.56° C | 76% | 1024 hPa | - | - | - | - |
| 1777785609 | 5° C | 80% | 1024.1 hPa | - | - | - | - |
| 1777785008 | 4.44° C | 81% | 1024.2 hPa | - | - | - | - |
* Rain since midnight (hover to see other rain measurements)
** Current wind speed in m/s (hover to see current wind gust speed)